Airfield :
LOGIN :

Register | Disclaimer

   EN    FR    IT 

 










Legend :    VFR   Marginal VFR   IFR   Intensive IFR   Very Intensive IFR
Visi :
Ceiling :
>= 8 km
>= 3000ft
5 to 8 km
1000 to 3000 ft
1500m to 5 km
500 to 1000 ft
800 to 1500m
200 to 500 ft
< 800m
< 200 ft
Symbols :   Thunderstorms  Fog  Heavy snow  Heavy precipitations  Wind > 20 kt
SIGMETs :     Misc.  Thunderstorms  Icing  Turbulence  Mountain Waves  Volcanic Ashes







- Airport Elevation : 56 ft
- IATA code : BZR
- Download approach charts


LFMU - Beziers / Vias

CURRENT METAR :
  • 131930Z AUTO 04013KT 9000 // OVC016 07/05 Q1008

EXPIRED METARs :
  • 131900Z AUTO 04013KT 6000 // OVC018 07/05 Q1007
  • 131830Z AUTO 04014KT 9999 // OVC021 07/05 Q1007
  • 131800Z AUTO 04016KT 9999 // OVC020/// ///TCU 07/05 Q1006
  • 131730Z AUTO 04016KT 9999 // OVC020 07/05 Q1006
  • 131700Z AUTO 04014KT 9999 // OVC020/// ///TCU 07/06 Q1006

TAF TAF LFMU
Valid from the 13 at 15:00 until the 14 at 15:00 UTC


131400Z 1315/1415 04010KT 9999 OVC020
TEMPO 1315/1405 -RA OVC010
PROB40
TEMPO 1315/1321 04015G25KT 2000 RA BR OVC008 FEW030TCU
BECMG 1405/1407 30005KT
BECMG 1408/1410 CAVOK
ATIS : +33 4 67 90 88 88
No reported NOTAMs for that airfield.
1 SIGMET reported for the Marseille FIR (LFMM) :
 
Severe icing
LFMM SIGMET 6 VALID 131900/132300 LFPW
LFMM MARSEILLE FIR/UIR SEV ICE OBS AT 1900Z SE OF LINE N3900 E00615 - N4330 E00830 FL170/240 MOV E 5KT NC=



MET'MAP, your aeronautical weather chart ! - Copyright ORBIFLY December 2007 - Disclaimer

ORBIFLY MET'MAP TEAM :

Programming & Development : Alexandra Zaïnal
Concept & Development : Baudouin d'Aumeries
Co-Development & Prog : Marc-Olivier Méhu
Technical & hardware support : Manuel Goepfert

Contact : metmap@orbifly.com




SOURCES & CREDITS :

   NOAA